sensor_id;sensor_type;location;lat;lon;timestamp;temperature;humidity
49821;DHT22;36893;52.520;13.450;2023-07-13T00:04:54;27.70;55.20
49821;DHT22;36893;52.520;13.450;2023-07-13T00:15:00;27.60;55.20
49821;DHT22;36893;52.520;13.450;2023-07-13T00:25:03;27.60;55.50
49821;DHT22;36893;52.520;13.450;2023-07-13T00:35:04;27.50;55.60
49821;DHT22;36893;52.520;13.450;2023-07-13T00:55:14;27.30;55.70
49821;DHT22;36893;52.520;13.450;2023-07-13T01:05:16;27.30;55.80
49821;DHT22;36893;52.520;13.450;2023-07-13T01:25:40;27.00;55.90
49821;DHT22;36893;52.520;13.450;2023-07-13T01:35:40;27.00;55.90
49821;DHT22;36893;52.520;13.450;2023-07-13T01:45:41;26.90;56.00
49821;DHT22;36893;52.520;13.450;2023-07-13T01:55:44;26.80;56.10
49821;DHT22;36893;52.520;13.450;2023-07-13T02:05:44;26.80;56.10
49821;DHT22;36893;52.520;13.450;2023-07-13T02:15:45;26.70;56.20
49821;DHT22;36893;52.520;13.450;2023-07-13T02:25:46;26.70;56.40
49821;DHT22;36893;52.520;13.450;2023-07-13T02:35:46;26.70;56.50
49821;DHT22;36893;52.520;13.450;2023-07-13T02:45:47;26.60;56.50
49821;DHT22;36893;52.520;13.450;2023-07-13T02:55:48;26.60;56.70
49821;DHT22;36893;52.520;13.450;2023-07-13T03:05:58;26.50;56.80
49821;DHT22;36893;52.520;13.450;2023-07-13T03:16:00;26.50;57.00
49821;DHT22;36893;52.520;13.450;2023-07-13T03:26:09;26.40;57.00
49821;DHT22;36893;52.520;13.450;2023-07-13T03:36:28;26.40;57.20
49821;DHT22;36893;52.520;13.450;2023-07-13T03:46:29;26.40;57.30
49821;DHT22;36893;52.520;13.450;2023-07-13T03:56:30;26.30;57.50
49821;DHT22;36893;52.520;13.450;2023-07-13T04:06:32;26.30;57.60
49821;DHT22;36893;52.520;13.450;2023-07-13T04:16:34;26.20;57.60
49821;DHT22;36893;52.520;13.450;2023-07-13T04:26:34;26.20;57.90
49821;DHT22;36893;52.520;13.450;2023-07-13T04:36:38;26.20;58.00
49821;DHT22;36893;52.520;13.450;2023-07-13T04:46:39;26.10;58.10
49821;DHT22;36893;52.520;13.450;2023-07-13T04:56:40;26.10;58.20
49821;DHT22;36893;52.520;13.450;2023-07-13T05:06:40;26.10;58.30
49821;DHT22;36893;52.520;13.450;2023-07-13T05:16:41;26.20;58.30
49821;DHT22;36893;52.520;13.450;2023-07-13T05:26:42;26.40;58.20
49821;DHT22;36893;52.520;13.450;2023-07-13T05:36:42;26.60;58.20
49821;DHT22;36893;52.520;13.450;2023-07-13T05:46:43;26.60;58.20
49821;DHT22;36893;52.520;13.450;2023-07-13T05:56:44;26.70;58.20
49821;DHT22;36893;52.520;13.450;2023-07-13T06:06:44;26.70;58.10
49821;DHT22;36893;52.520;13.450;2023-07-13T06:16:45;26.80;58.20
49821;DHT22;36893;52.520;13.450;2023-07-13T06:26:46;26.80;58.10
49821;DHT22;36893;52.520;13.450;2023-07-13T06:36:46;26.90;58.10
49821;DHT22;36893;52.520;13.450;2023-07-13T06:46:47;26.90;58.10
49821;DHT22;36893;52.520;13.450;2023-07-13T06:56:47;27.00;58.10
49821;DHT22;36893;52.520;13.450;2023-07-13T07:06:48;27.00;58.10
49821;DHT22;36893;52.520;13.450;2023-07-13T07:16:49;27.10;58.00
49821;DHT22;36893;52.520;13.450;2023-07-13T07:26:50;27.10;57.90
49821;DHT22;36893;52.520;13.450;2023-07-13T07:36:51;27.20;57.90
49821;DHT22;36893;52.520;13.450;2023-07-13T07:46:51;27.30;57.80
49821;DHT22;36893;52.520;13.450;2023-07-13T07:56:52;27.30;57.70
49821;DHT22;36893;52.520;13.450;2023-07-13T08:06:53;27.30;57.60
49821;DHT22;36893;52.520;13.450;2023-07-13T08:16:53;27.40;57.60
49821;DHT22;36893;52.520;13.450;2023-07-13T08:26:54;27.50;57.50
49821;DHT22;36893;52.520;13.450;2023-07-13T08:36:55;27.60;57.40
49821;DHT22;36893;52.520;13.450;2023-07-13T08:46:57;27.60;57.30
49821;DHT22;36893;52.520;13.450;2023-07-13T08:57:02;27.70;57.30
49821;DHT22;36893;52.520;13.450;2023-07-13T09:17:41;27.80;57.10
49821;DHT22;36893;52.520;13.450;2023-07-13T09:27:47;27.80;57.00
49821;DHT22;36893;52.520;13.450;2023-07-13T09:37:49;27.90;56.90
49821;DHT22;36893;52.520;13.450;2023-07-13T09:47:59;28.00;56.80
49821;DHT22;36893;52.520;13.450;2023-07-13T09:58:29;28.10;56.70
49821;DHT22;36893;52.520;13.450;2023-07-13T10:08:35;28.20;56.70
49821;DHT22;36893;52.520;13.450;2023-07-13T10:18:45;28.20;56.50
49821;DHT22;36893;52.520;13.450;2023-07-13T10:28:52;28.30;56.40
49821;DHT22;36893;52.520;13.450;2023-07-13T10:38:57;28.40;56.20
49821;DHT22;36893;52.520;13.450;2023-07-13T10:49:02;28.40;56.00
49821;DHT22;36893;52.520;13.450;2023-07-13T11:09:32;28.40;55.80
49821;DHT22;36893;52.520;13.450;2023-07-13T11:19:39;28.50;55.70
49821;DHT22;36893;52.520;13.450;2023-07-13T11:29:41;28.50;55.60
49821;DHT22;36893;52.520;13.450;2023-07-13T11:39:43;28.50;55.40
49821;DHT22;36893;52.520;13.450;2023-07-13T11:49:48;28.50;55.30
49821;DHT22;36893;52.520;13.450;2023-07-13T11:59:51;28.50;55.20
49821;DHT22;36893;52.520;13.450;2023-07-13T12:09:52;28.50;55.10
49821;DHT22;36893;52.520;13.450;2023-07-13T12:19:53;28.60;55.10
49821;DHT22;36893;52.520;13.450;2023-07-13T12:30:04;28.60;55.10
49821;DHT22;36893;52.520;13.450;2023-07-13T12:40:14;28.60;55.00
49821;DHT22;36893;52.520;13.450;2023-07-13T12:50:19;28.70;55.10
49821;DHT22;36893;52.520;13.450;2023-07-13T13:00:32;28.70;55.00
49821;DHT22;36893;52.520;13.450;2023-07-13T13:10:35;28.70;54.90
49821;DHT22;36893;52.520;13.450;2023-07-13T13:20:36;28.80;54.90
49821;DHT22;36893;52.520;13.450;2023-07-13T13:30:37;28.80;54.80
49821;DHT22;36893;52.520;13.450;2023-07-13T13:40:37;28.90;54.70
49821;DHT22;36893;52.520;13.450;2023-07-13T13:50:38;28.90;54.70
49821;DHT22;36893;52.520;13.450;2023-07-13T14:00:39;28.90;54.60
49821;DHT22;36893;52.520;13.450;2023-07-13T14:10:40;28.90;54.70
49821;DHT22;36893;52.520;13.450;2023-07-13T14:20:40;28.90;54.70
49821;DHT22;36893;52.520;13.450;2023-07-13T14:30:41;29.00;54.80
49821;DHT22;36893;52.520;13.450;2023-07-13T14:40:42;29.00;54.80
49821;DHT22;36893;52.520;13.450;2023-07-13T14:50:43;29.00;54.80
49821;DHT22;36893;52.520;13.450;2023-07-13T15:00:43;29.10;54.80
49821;DHT22;36893;52.520;13.450;2023-07-13T15:10:44;29.10;54.80
49821;DHT22;36893;52.520;13.450;2023-07-13T15:20:46;29.10;54.90
49821;DHT22;36893;52.520;13.450;2023-07-13T15:30:48;29.10;54.90
49821;DHT22;36893;52.520;13.450;2023-07-13T15:40:50;29.20;55.00
49821;DHT22;36893;52.520;13.450;2023-07-13T15:50:53;29.10;54.90
49821;DHT22;36893;52.520;13.450;2023-07-13T16:00:54;29.20;55.00
49821;DHT22;36893;52.520;13.450;2023-07-13T16:10:55;29.20;55.00
49821;DHT22;36893;52.520;13.450;2023-07-13T16:20:56;29.20;55.00
49821;DHT22;36893;52.520;13.450;2023-07-13T16:30:57;29.20;55.00
49821;DHT22;36893;52.520;13.450;2023-07-13T16:40:58;29.30;55.00
49821;DHT22;36893;52.520;13.450;2023-07-13T16:50:59;29.30;55.00
49821;DHT22;36893;52.520;13.450;2023-07-13T17:01:00;29.30;55.30
49821;DHT22;36893;52.520;13.450;2023-07-13T17:11:03;29.30;55.00
49821;DHT22;36893;52.520;13.450;2023-07-13T17:21:12;29.30;55.10
49821;DHT22;36893;52.520;13.450;2023-07-13T17:31:18;29.30;55.10
49821;DHT22;36893;52.520;13.450;2023-07-13T17:41:20;29.40;55.20
49821;DHT22;36893;52.520;13.450;2023-07-13T17:51:22;29.30;55.10
49821;DHT22;36893;52.520;13.450;2023-07-13T18:01:24;29.40;55.20
49821;DHT22;36893;52.520;13.450;2023-07-13T18:11:26;29.40;55.30
49821;DHT22;36893;52.520;13.450;2023-07-13T18:21:27;29.40;55.30
49821;DHT22;36893;52.520;13.450;2023-07-13T18:31:35;29.40;55.30
49821;DHT22;36893;52.520;13.450;2023-07-13T18:41:36;29.40;55.30
49821;DHT22;36893;52.520;13.450;2023-07-13T18:51:36;29.40;55.30
49821;DHT22;36893;52.520;13.450;2023-07-13T19:01:37;29.40;55.30
49821;DHT22;36893;52.520;13.450;2023-07-13T19:11:38;29.40;55.40
49821;DHT22;36893;52.520;13.450;2023-07-13T19:21:39;29.40;55.40
49821;DHT22;36893;52.520;13.450;2023-07-13T19:31:39;29.40;55.40
49821;DHT22;36893;52.520;13.450;2023-07-13T19:41:40;29.40;55.40
49821;DHT22;36893;52.520;13.450;2023-07-13T19:51:41;29.40;55.40
49821;DHT22;36893;52.520;13.450;2023-07-13T20:01:42;29.40;55.40
49821;DHT22;36893;52.520;13.450;2023-07-13T20:11:44;29.40;55.40
49821;DHT22;36893;52.520;13.450;2023-07-13T20:21:45;29.40;55.40
49821;DHT22;36893;52.520;13.450;2023-07-13T20:31:47;29.40;55.40
49821;DHT22;36893;52.520;13.450;2023-07-13T20:41:49;29.40;55.40
49821;DHT22;36893;52.520;13.450;2023-07-13T20:51:49;29.40;55.40
49821;DHT22;36893;52.520;13.450;2023-07-13T21:01:51;29.50;55.30
49821;DHT22;36893;52.520;13.450;2023-07-13T21:11:52;29.50;55.30
49821;DHT22;36893;52.520;13.450;2023-07-13T21:21:52;29.50;55.40
49821;DHT22;36893;52.520;13.450;2023-07-13T21:31:53;29.50;55.30
49821;DHT22;36893;52.520;13.450;2023-07-13T21:41:53;29.50;55.40
49821;DHT22;36893;52.520;13.450;2023-07-13T21:51:54;29.50;55.30
49821;DHT22;36893;52.520;13.450;2023-07-13T22:01:56;29.50;55.30
49821;DHT22;36893;52.520;13.450;2023-07-13T22:11:56;29.50;55.30
49821;DHT22;36893;52.520;13.450;2023-07-13T22:21:57;29.40;55.10
49821;DHT22;36893;52.520;13.450;2023-07-13T22:31:58;29.40;55.20
49821;DHT22;36893;52.520;13.450;2023-07-13T22:41:58;29.40;55.10
49821;DHT22;36893;52.520;13.450;2023-07-13T22:52:01;29.40;55.10
49821;DHT22;36893;52.520;13.450;2023-07-13T23:02:03;29.40;55.20
49821;DHT22;36893;52.520;13.450;2023-07-13T23:12:05;29.40;55.10
49821;DHT22;36893;52.520;13.450;2023-07-13T23:22:21;29.40;55.10
49821;DHT22;36893;52.520;13.450;2023-07-13T23:32:26;29.40;55.20
49821;DHT22;36893;52.520;13.450;2023-07-13T23:42:26;29.40;55.10
49821;DHT22;36893;52.520;13.450;2023-07-13T23:52:27;29.40;55.20
